sensor_id;sensor_type;location;lat;lon;timestamp;temperature;humidity
6792;DHT22;3433;48.730;9.108;2022-12-07T00:01:22;5.50;99.90
6792;DHT22;3433;48.730;9.108;2022-12-07T00:04:12;5.50;99.90
6792;DHT22;3433;48.730;9.108;2022-12-07T00:07:00;5.50;99.90
6792;DHT22;3433;48.730;9.108;2022-12-07T00:09:47;5.50;99.90
6792;DHT22;3433;48.730;9.108;2022-12-07T00:12:34;5.40;99.90
6792;DHT22;3433;48.730;9.108;2022-12-07T00:15:23;5.50;99.90
6792;DHT22;3433;48.730;9.108;2022-12-07T00:18:10;5.50;99.90
6792;DHT22;3433;48.730;9.108;2022-12-07T00:21:01;5.40;99.90
6792;DHT22;3433;48.730;9.108;2022-12-07T00:23:50;5.40;99.90
6792;DHT22;3433;48.730;9.108;2022-12-07T00:26:38;5.40;99.90
6792;DHT22;3433;48.730;9.108;2022-12-07T00:29:26;5.50;99.90
6792;DHT22;3433;48.730;9.108;2022-12-07T00:32:15;5.40;99.90
6792;DHT22;3433;48.730;9.108;2022-12-07T00:35:03;5.40;99.90
6792;DHT22;3433;48.730;9.108;2022-12-07T00:37:50;5.40;99.90
6792;DHT22;3433;48.730;9.108;2022-12-07T00:40:37;5.40;99.90
6792;DHT22;3433;48.730;9.108;2022-12-07T00:43:30;5.40;99.90
6792;DHT22;3433;48.730;9.108;2022-12-07T00:46:18;5.40;99.90
6792;DHT22;3433;48.730;9.108;2022-12-07T00:49:07;5.50;99.90
6792;DHT22;3433;48.730;9.108;2022-12-07T00:51:54;5.50;99.90
6792;DHT22;3433;48.730;9.108;2022-12-07T00:54:42;5.40;99.90
6792;DHT22;3433;48.730;9.108;2022-12-07T00:57:30;5.50;99.90
6792;DHT22;3433;48.730;9.108;2022-12-07T01:00:18;5.40;99.90
6792;DHT22;3433;48.730;9.108;2022-12-07T01:03:06;5.40;99.90
6792;DHT22;3433;48.730;9.108;2022-12-07T01:05:55;5.40;99.90
6792;DHT22;3433;48.730;9.108;2022-12-07T01:08:43;5.40;99.90
6792;DHT22;3433;48.730;9.108;2022-12-07T01:11:30;5.40;99.90
6792;DHT22;3433;48.730;9.108;2022-12-07T01:14:18;5.40;99.90
6792;DHT22;3433;48.730;9.108;2022-12-07T01:17:05;5.30;99.90
6792;DHT22;3433;48.730;9.108;2022-12-07T01:19:52;5.30;99.90
6792;DHT22;3433;48.730;9.108;2022-12-07T01:22:42;5.30;99.90
6792;DHT22;3433;48.730;9.108;2022-12-07T01:25:29;5.30;99.90
6792;DHT22;3433;48.730;9.108;2022-12-07T01:28:17;5.30;99.90
6792;DHT22;3433;48.730;9.108;2022-12-07T01:31:06;5.30;99.90
6792;DHT22;3433;48.730;9.108;2022-12-07T01:33:56;5.30;99.90
6792;DHT22;3433;48.730;9.108;2022-12-07T01:36:44;5.30;99.90
6792;DHT22;3433;48.730;9.108;2022-12-07T01:39:33;5.30;99.90
6792;DHT22;3433;48.730;9.108;2022-12-07T01:42:20;5.30;99.90
6792;DHT22;3433;48.730;9.108;2022-12-07T01:45:38;5.30;99.90
6792;DHT22;3433;48.730;9.108;2022-12-07T01:48:27;5.30;99.90
6792;DHT22;3433;48.730;9.108;2022-12-07T01:51:15;5.20;99.90
6792;DHT22;3433;48.730;9.108;2022-12-07T01:54:02;5.30;99.90
6792;DHT22;3433;48.730;9.108;2022-12-07T01:56:54;5.30;99.90
6792;DHT22;3433;48.730;9.108;2022-12-07T01:59:42;5.20;99.90
6792;DHT22;3433;48.730;9.108;2022-12-07T02:02:32;5.20;99.90
6792;DHT22;3433;48.730;9.108;2022-12-07T02:05:20;5.20;99.90
6792;DHT22;3433;48.730;9.108;2022-12-07T02:08:09;5.20;99.90
6792;DHT22;3433;48.730;9.108;2022-12-07T02:10:57;5.20;99.90
6792;DHT22;3433;48.730;9.108;2022-12-07T02:13:46;5.20;99.90
6792;DHT22;3433;48.730;9.108;2022-12-07T02:16:40;5.20;99.90
6792;DHT22;3433;48.730;9.108;2022-12-07T02:23:29;5.10;99.90
6792;DHT22;3433;48.730;9.108;2022-12-07T02:29:36;5.10;99.90
6792;DHT22;3433;48.730;9.108;2022-12-07T02:32:28;5.10;99.90
6792;DHT22;3433;48.730;9.108;2022-12-07T02:35:20;5.10;99.90
6792;DHT22;3433;48.730;9.108;2022-12-07T02:38:13;5.10;99.90
6792;DHT22;3433;48.730;9.108;2022-12-07T02:41:05;5.10;99.90
6792;DHT22;3433;48.730;9.108;2022-12-07T02:43:57;5.10;99.90
6792;DHT22;3433;48.730;9.108;2022-12-07T02:46:52;5.10;99.90
6792;DHT22;3433;48.730;9.108;2022-12-07T02:49:40;5.10;99.90
6792;DHT22;3433;48.730;9.108;2022-12-07T02:52:28;5.10;99.90
6792;DHT22;3433;48.730;9.108;2022-12-07T02:55:18;5.00;99.90
6792;DHT22;3433;48.730;9.108;2022-12-07T02:58:20;5.00;99.90
6792;DHT22;3433;48.730;9.108;2022-12-07T03:01:16;5.10;99.90
6792;DHT22;3433;48.730;9.108;2022-12-07T03:04:20;5.10;99.90
6792;DHT22;3433;48.730;9.108;2022-12-07T03:07:16;5.00;99.90
6792;DHT22;3433;48.730;9.108;2022-12-07T03:10:09;5.10;99.90
6792;DHT22;3433;48.730;9.108;2022-12-07T03:13:05;5.00;99.90
6792;DHT22;3433;48.730;9.108;2022-12-07T03:15:57;5.00;99.90
6792;DHT22;3433;48.730;9.108;2022-12-07T03:18:50;5.00;99.90
6792;DHT22;3433;48.730;9.108;2022-12-07T03:21:42;5.00;99.90
6792;DHT22;3433;48.730;9.108;2022-12-07T03:24:35;5.00;99.90
6792;DHT22;3433;48.730;9.108;2022-12-07T03:27:26;5.00;99.90
6792;DHT22;3433;48.730;9.108;2022-12-07T03:30:17;5.00;99.90
6792;DHT22;3433;48.730;9.108;2022-12-07T03:33:07;4.90;99.90
6792;DHT22;3433;48.730;9.108;2022-12-07T03:36:00;5.10;99.90
6792;DHT22;3433;48.730;9.108;2022-12-07T03:38:53;5.00;99.90
6792;DHT22;3433;48.730;9.108;2022-12-07T03:41:42;5.00;99.90
6792;DHT22;3433;48.730;9.108;2022-12-07T03:44:29;5.00;99.90
6792;DHT22;3433;48.730;9.108;2022-12-07T03:47:22;5.00;99.90
6792;DHT22;3433;48.730;9.108;2022-12-07T03:50:15;5.00;99.90
6792;DHT22;3433;48.730;9.108;2022-12-07T03:53:09;5.00;99.90
6792;DHT22;3433;48.730;9.108;2022-12-07T03:56:01;5.00;99.90
6792;DHT22;3433;48.730;9.108;2022-12-07T03:58:49;4.90;99.90
6792;DHT22;3433;48.730;9.108;2022-12-07T04:01:37;4.90;99.90
6792;DHT22;3433;48.730;9.108;2022-12-07T04:04:24;4.90;99.90
6792;DHT22;3433;48.730;9.108;2022-12-07T04:07:12;4.80;99.90
6792;DHT22;3433;48.730;9.108;2022-12-07T04:10:00;4.80;99.90
6792;DHT22;3433;48.730;9.108;2022-12-07T04:12:49;4.80;99.90
6792;DHT22;3433;48.730;9.108;2022-12-07T04:15:36;4.80;99.90
6792;DHT22;3433;48.730;9.108;2022-12-07T04:18:23;4.80;99.90
6792;DHT22;3433;48.730;9.108;2022-12-07T04:21:11;4.80;99.90
6792;DHT22;3433;48.730;9.108;2022-12-07T04:23:58;4.80;99.90
6792;DHT22;3433;48.730;9.108;2022-12-07T04:26:46;4.80;99.90
6792;DHT22;3433;48.730;9.108;2022-12-07T04:29:35;4.80;99.90
6792;DHT22;3433;48.730;9.108;2022-12-07T04:32:22;4.90;99.90
6792;DHT22;3433;48.730;9.108;2022-12-07T04:35:10;4.90;99.90
6792;DHT22;3433;48.730;9.108;2022-12-07T04:37:57;4.90;99.90
6792;DHT22;3433;48.730;9.108;2022-12-07T04:40:44;4.80;99.90
6792;DHT22;3433;48.730;9.108;2022-12-07T04:43:32;4.80;99.90
6792;DHT22;3433;48.730;9.108;2022-12-07T04:46:20;4.80;99.90
6792;DHT22;3433;48.730;9.108;2022-12-07T04:49:08;4.80;99.90
6792;DHT22;3433;48.730;9.108;2022-12-07T04:51:55;4.80;99.90
6792;DHT22;3433;48.730;9.108;2022-12-07T04:54:43;4.70;99.90
6792;DHT22;3433;48.730;9.108;2022-12-07T04:57:30;4.70;99.90
6792;DHT22;3433;48.730;9.108;2022-12-07T05:00:18;4.70;99.90
6792;DHT22;3433;48.730;9.108;2022-12-07T05:03:07;4.50;99.90
6792;DHT22;3433;48.730;9.108;2022-12-07T05:05:54;4.40;99.90
6792;DHT22;3433;48.730;9.108;2022-12-07T05:08:42;4.30;99.90
6792;DHT22;3433;48.730;9.108;2022-12-07T05:11:30;4.40;99.90
6792;DHT22;3433;48.730;9.108;2022-12-07T05:14:26;4.40;99.90
6792;DHT22;3433;48.730;9.108;2022-12-07T05:17:14;4.40;99.90
6792;DHT22;3433;48.730;9.108;2022-12-07T05:20:05;4.50;99.90
6792;DHT22;3433;48.730;9.108;2022-12-07T05:22:52;4.50;99.90
6792;DHT22;3433;48.730;9.108;2022-12-07T05:25:40;4.60;99.90
6792;DHT22;3433;48.730;9.108;2022-12-07T05:28:27;4.60;99.90
6792;DHT22;3433;48.730;9.108;2022-12-07T05:31:15;4.50;99.90
6792;DHT22;3433;48.730;9.108;2022-12-07T05:34:02;4.50;99.90
6792;DHT22;3433;48.730;9.108;2022-12-07T05:36:53;4.50;99.90
6792;DHT22;3433;48.730;9.108;2022-12-07T05:39:40;4.50;99.90
6792;DHT22;3433;48.730;9.108;2022-12-07T05:42:28;4.50;99.90
6792;DHT22;3433;48.730;9.108;2022-12-07T05:45:16;4.50;99.90
6792;DHT22;3433;48.730;9.108;2022-12-07T05:48:03;4.40;99.90
6792;DHT22;3433;48.730;9.108;2022-12-07T05:50:51;4.40;99.90
6792;DHT22;3433;48.730;9.108;2022-12-07T05:53:40;4.30;99.90
6792;DHT22;3433;48.730;9.108;2022-12-07T05:56:27;4.20;99.90
6792;DHT22;3433;48.730;9.108;2022-12-07T05:59:15;4.20;99.90
6792;DHT22;3433;48.730;9.108;2022-12-07T06:02:14;4.10;99.90
6792;DHT22;3433;48.730;9.108;2022-12-07T06:05:07;4.20;99.90
6792;DHT22;3433;48.730;9.108;2022-12-07T06:07:54;4.10;99.90
6792;DHT22;3433;48.730;9.108;2022-12-07T06:10:43;4.10;99.90
6792;DHT22;3433;48.730;9.108;2022-12-07T06:13:30;4.00;99.90
6792;DHT22;3433;48.730;9.108;2022-12-07T06:16:17;4.10;99.90
6792;DHT22;3433;48.730;9.108;2022-12-07T06:19:04;4.00;99.90
6792;DHT22;3433;48.730;9.108;2022-12-07T06:21:51;4.00;99.90
6792;DHT22;3433;48.730;9.108;2022-12-07T06:24:39;3.60;99.90
6792;DHT22;3433;48.730;9.108;2022-12-07T06:27:28;3.90;99.90
6792;DHT22;3433;48.730;9.108;2022-12-07T06:30:16;4.00;99.90
6792;DHT22;3433;48.730;9.108;2022-12-07T06:33:03;4.10;99.90
6792;DHT22;3433;48.730;9.108;2022-12-07T06:35:50;4.10;99.90
6792;DHT22;3433;48.730;9.108;2022-12-07T06:38:38;4.20;99.90
6792;DHT22;3433;48.730;9.108;2022-12-07T06:41:25;4.10;99.90
6792;DHT22;3433;48.730;9.108;2022-12-07T06:44:14;4.10;99.90
6792;DHT22;3433;48.730;9.108;2022-12-07T06:47:03;3.90;99.90
6792;DHT22;3433;48.730;9.108;2022-12-07T06:49:50;3.90;99.90
6792;DHT22;3433;48.730;9.108;2022-12-07T06:52:37;3.90;99.90
6792;DHT22;3433;48.730;9.108;2022-12-07T06:55:25;4.00;99.90
6792;DHT22;3433;48.730;9.108;2022-12-07T06:58:12;4.10;99.90
6792;DHT22;3433;48.730;9.108;2022-12-07T07:01:01;4.00;99.90
6792;DHT22;3433;48.730;9.108;2022-12-07T07:03:48;4.00;99.90
6792;DHT22;3433;48.730;9.108;2022-12-07T07:06:36;3.90;99.90
6792;DHT22;3433;48.730;9.108;2022-12-07T07:09:23;3.90;99.90
6792;DHT22;3433;48.730;9.108;2022-12-07T07:12:10;4.00;99.90
6792;DHT22;3433;48.730;9.108;2022-12-07T07:14:57;4.10;99.90
6792;DHT22;3433;48.730;9.108;2022-12-07T07:17:46;4.10;99.90
6792;DHT22;3433;48.730;9.108;2022-12-07T07:20:34;4.10;99.90
6792;DHT22;3433;48.730;9.108;2022-12-07T07:23:21;4.20;99.90
6792;DHT22;3433;48.730;9.108;2022-12-07T07:26:09;4.20;99.90
6792;DHT22;3433;48.730;9.108;2022-12-07T07:28:56;4.10;99.90
6792;DHT22;3433;48.730;9.108;2022-12-07T07:31:43;4.20;99.90
6792;DHT22;3433;48.730;9.108;2022-12-07T07:34:32;4.20;99.90
6792;DHT22;3433;48.730;9.108;2022-12-07T07:37:20;4.20;99.90
6792;DHT22;3433;48.730;9.108;2022-12-07T07:40:08;4.30;99.90
6792;DHT22;3433;48.730;9.108;2022-12-07T07:42:55;4.20;99.90
6792;DHT22;3433;48.730;9.108;2022-12-07T07:45:44;4.10;99.90
6792;DHT22;3433;48.730;9.108;2022-12-07T07:48:31;4.30;99.90
6792;DHT22;3433;48.730;9.108;2022-12-07T07:51:20;4.30;99.90
6792;DHT22;3433;48.730;9.108;2022-12-07T07:54:07;4.20;99.90
6792;DHT22;3433;48.730;9.108;2022-12-07T07:56:54;4.20;99.90
6792;DHT22;3433;48.730;9.108;2022-12-07T07:59:42;4.20;99.90
6792;DHT22;3433;48.730;9.108;2022-12-07T08:02:29;4.30;99.90
6792;DHT22;3433;48.730;9.108;2022-12-07T08:05:17;4.40;99.90
6792;DHT22;3433;48.730;9.108;2022-12-07T08:08:05;4.30;99.90
6792;DHT22;3433;48.730;9.108;2022-12-07T08:10:53;4.30;99.90
6792;DHT22;3433;48.730;9.108;2022-12-07T08:13:40;4.40;99.90
6792;DHT22;3433;48.730;9.108;2022-12-07T08:16:27;4.30;99.90
6792;DHT22;3433;48.730;9.108;2022-12-07T08:19:15;4.40;99.90
6792;DHT22;3433;48.730;9.108;2022-12-07T08:22:02;4.50;99.90
6792;DHT22;3433;48.730;9.108;2022-12-07T08:24:51;4.60;99.90
6792;DHT22;3433;48.730;9.108;2022-12-07T08:27:38;4.50;99.90
6792;DHT22;3433;48.730;9.108;2022-12-07T08:30:26;4.40;99.90
6792;DHT22;3433;48.730;9.108;2022-12-07T08:33:13;4.50;99.90
6792;DHT22;3433;48.730;9.108;2022-12-07T08:36:01;4.60;99.90
6792;DHT22;3433;48.730;9.108;2022-12-07T08:38:49;4.70;99.90
6792;DHT22;3433;48.730;9.108;2022-12-07T08:41:38;4.70;99.90
6792;DHT22;3433;48.730;9.108;2022-12-07T08:44:25;4.80;99.90
6792;DHT22;3433;48.730;9.108;2022-12-07T08:47:13;4.90;99.90
6792;DHT22;3433;48.730;9.108;2022-12-07T08:50:01;4.90;99.90
6792;DHT22;3433;48.730;9.108;2022-12-07T08:52:51;4.90;99.90
6792;DHT22;3433;48.730;9.108;2022-12-07T08:55:39;4.90;99.90
6792;DHT22;3433;48.730;9.108;2022-12-07T08:58:28;4.90;99.90
6792;DHT22;3433;48.730;9.108;2022-12-07T09:01:16;4.90;99.90
6792;DHT22;3433;48.730;9.108;2022-12-07T09:04:03;5.10;99.90
6792;DHT22;3433;48.730;9.108;2022-12-07T09:06:51;5.10;99.90
6792;DHT22;3433;48.730;9.108;2022-12-07T09:09:38;5.20;99.90
6792;DHT22;3433;48.730;9.108;2022-12-07T09:12:25;5.20;99.90
6792;DHT22;3433;48.730;9.108;2022-12-07T09:15:14;5.20;99.90
6792;DHT22;3433;48.730;9.108;2022-12-07T09:18:01;5.20;99.90
6792;DHT22;3433;48.730;9.108;2022-12-07T09:20:49;5.20;99.90
6792;DHT22;3433;48.730;9.108;2022-12-07T09:23:36;5.20;99.90
6792;DHT22;3433;48.730;9.108;2022-12-07T09:26:24;5.30;99.90
6792;DHT22;3433;48.730;9.108;2022-12-07T09:29:11;5.40;99.90
6792;DHT22;3433;48.730;9.108;2022-12-07T09:32:00;5.30;99.90
6792;DHT22;3433;48.730;9.108;2022-12-07T09:34:47;5.40;99.90
6792;DHT22;3433;48.730;9.108;2022-12-07T09:37:35;5.40;99.90
6792;DHT22;3433;48.730;9.108;2022-12-07T09:40:23;5.40;99.90
6792;DHT22;3433;48.730;9.108;2022-12-07T09:43:13;5.50;99.90
6792;DHT22;3433;48.730;9.108;2022-12-07T09:46:02;5.40;99.90
6792;DHT22;3433;48.730;9.108;2022-12-07T09:48:51;5.40;99.90
6792;DHT22;3433;48.730;9.108;2022-12-07T09:51:39;5.40;99.90
6792;DHT22;3433;48.730;9.108;2022-12-07T09:54:26;5.50;99.90
6792;DHT22;3433;48.730;9.108;2022-12-07T09:57:13;5.60;99.90
6792;DHT22;3433;48.730;9.108;2022-12-07T10:00:03;5.70;99.90
6792;DHT22;3433;48.730;9.108;2022-12-07T10:02:54;5.70;99.90
6792;DHT22;3433;48.730;9.108;2022-12-07T10:05:47;5.80;99.90
6792;DHT22;3433;48.730;9.108;2022-12-07T10:08:34;5.80;99.90
6792;DHT22;3433;48.730;9.108;2022-12-07T10:11:22;5.90;99.90
6792;DHT22;3433;48.730;9.108;2022-12-07T10:14:13;6.00;99.90
6792;DHT22;3433;48.730;9.108;2022-12-07T10:17:00;6.00;99.90
6792;DHT22;3433;48.730;9.108;2022-12-07T10:19:47;6.00;99.90
6792;DHT22;3433;48.730;9.108;2022-12-07T10:22:36;6.00;99.90
6792;DHT22;3433;48.730;9.108;2022-12-07T10:25:27;6.10;99.90
6792;DHT22;3433;48.730;9.108;2022-12-07T10:28:16;6.10;99.90
6792;DHT22;3433;48.730;9.108;2022-12-07T10:31:17;6.10;99.90
6792;DHT22;3433;48.730;9.108;2022-12-07T10:34:20;6.10;99.90
6792;DHT22;3433;48.730;9.108;2022-12-07T10:37:15;6.10;99.90
6792;DHT22;3433;48.730;9.108;2022-12-07T10:43:18;5.90;99.90
6792;DHT22;3433;48.730;9.108;2022-12-07T10:50:14;6.20;99.90
6792;DHT22;3433;48.730;9.108;2022-12-07T10:56:35;6.10;99.90
6792;DHT22;3433;48.730;9.108;2022-12-07T11:00:07;6.00;99.90
6792;DHT22;3433;48.730;9.108;2022-12-07T11:03:11;6.10;99.90
6792;DHT22;3433;48.730;9.108;2022-12-07T11:06:14;6.20;99.90
6792;DHT22;3433;48.730;9.108;2022-12-07T11:09:24;6.30;99.90
6792;DHT22;3433;48.730;9.108;2022-12-07T11:12:25;6.30;99.90
6792;DHT22;3433;48.730;9.108;2022-12-07T11:15:18;6.30;99.90
6792;DHT22;3433;48.730;9.108;2022-12-07T11:18:13;6.40;99.90
6792;DHT22;3433;48.730;9.108;2022-12-07T11:21:07;6.40;99.90
6792;DHT22;3433;48.730;9.108;2022-12-07T11:24:01;6.40;99.90
6792;DHT22;3433;48.730;9.108;2022-12-07T11:27:02;6.40;99.90
6792;DHT22;3433;48.730;9.108;2022-12-07T11:30:12;6.40;99.90
6792;DHT22;3433;48.730;9.108;2022-12-07T11:33:11;6.30;99.90
6792;DHT22;3433;48.730;9.108;2022-12-07T11:36:14;6.20;99.90
6792;DHT22;3433;48.730;9.108;2022-12-07T11:39:23;6.30;99.90
6792;DHT22;3433;48.730;9.108;2022-12-07T11:42:15;6.30;99.90
6792;DHT22;3433;48.730;9.108;2022-12-07T11:45:15;6.50;99.90
6792;DHT22;3433;48.730;9.108;2022-12-07T11:48:10;6.30;99.90
6792;DHT22;3433;48.730;9.108;2022-12-07T11:51:01;6.40;99.90
6792;DHT22;3433;48.730;9.108;2022-12-07T11:53:52;6.50;99.90
6792;DHT22;3433;48.730;9.108;2022-12-07T11:56:41;6.40;99.90
6792;DHT22;3433;48.730;9.108;2022-12-07T11:59:32;6.50;99.90
6792;DHT22;3433;48.730;9.108;2022-12-07T12:02:26;6.50;99.90
6792;DHT22;3433;48.730;9.108;2022-12-07T12:05:17;6.50;99.90
6792;DHT22;3433;48.730;9.108;2022-12-07T12:08:13;6.50;99.90
6792;DHT22;3433;48.730;9.108;2022-12-07T12:11:12;6.50;99.90
6792;DHT22;3433;48.730;9.108;2022-12-07T12:14:13;6.50;99.90
6792;DHT22;3433;48.730;9.108;2022-12-07T12:17:25;6.50;99.90
6792;DHT22;3433;48.730;9.108;2022-12-07T12:20:21;6.40;99.90
6792;DHT22;3433;48.730;9.108;2022-12-07T12:23:14;6.50;99.90
6792;DHT22;3433;48.730;9.108;2022-12-07T12:26:05;6.50;99.90
6792;DHT22;3433;48.730;9.108;2022-12-07T12:28:56;6.50;99.90
6792;DHT22;3433;48.730;9.108;2022-12-07T12:31:47;6.50;99.90
6792;DHT22;3433;48.730;9.108;2022-12-07T12:38:28;6.50;99.90
6792;DHT22;3433;48.730;9.108;2022-12-07T12:45:19;6.70;99.90
6792;DHT22;3433;48.730;9.108;2022-12-07T12:48:28;6.70;99.90
6792;DHT22;3433;48.730;9.108;2022-12-07T12:51:39;6.60;99.90
6792;DHT22;3433;48.730;9.108;2022-12-07T12:54:28;6.80;99.90
6792;DHT22;3433;48.730;9.108;2022-12-07T12:57:20;6.70;99.90
6792;DHT22;3433;48.730;9.108;2022-12-07T13:00:17;6.70;99.90
6792;DHT22;3433;48.730;9.108;2022-12-07T13:03:04;6.60;99.90
6792;DHT22;3433;48.730;9.108;2022-12-07T13:06:17;6.60;99.90
6792;DHT22;3433;48.730;9.108;2022-12-07T13:09:19;6.50;99.90
6792;DHT22;3433;48.730;9.108;2022-12-07T13:12:13;6.50;99.90
6792;DHT22;3433;48.730;9.108;2022-12-07T13:15:00;6.50;99.90
6792;DHT22;3433;48.730;9.108;2022-12-07T13:18:00;6.60;99.90
6792;DHT22;3433;48.730;9.108;2022-12-07T13:20:49;6.60;99.90
6792;DHT22;3433;48.730;9.108;2022-12-07T13:23:39;6.60;99.90
6792;DHT22;3433;48.730;9.108;2022-12-07T13:26:42;6.60;99.90
6792;DHT22;3433;48.730;9.108;2022-12-07T13:29:36;6.60;99.90
6792;DHT22;3433;48.730;9.108;2022-12-07T13:32:25;6.60;99.90
6792;DHT22;3433;48.730;9.108;2022-12-07T13:35:33;6.60;99.90
6792;DHT22;3433;48.730;9.108;2022-12-07T13:38:25;6.60;99.90
6792;DHT22;3433;48.730;9.108;2022-12-07T13:41:14;6.60;99.90
6792;DHT22;3433;48.730;9.108;2022-12-07T13:44:08;6.50;99.90
6792;DHT22;3433;48.730;9.108;2022-12-07T13:47:00;6.60;99.90
6792;DHT22;3433;48.730;9.108;2022-12-07T13:49:53;6.60;99.90
6792;DHT22;3433;48.730;9.108;2022-12-07T13:52:43;6.60;99.90
6792;DHT22;3433;48.730;9.108;2022-12-07T13:55:31;6.80;99.90
6792;DHT22;3433;48.730;9.108;2022-12-07T13:58:19;6.70;99.90
6792;DHT22;3433;48.730;9.108;2022-12-07T14:01:08;6.70;99.90
6792;DHT22;3433;48.730;9.108;2022-12-07T14:03:55;6.80;99.90
6792;DHT22;3433;48.730;9.108;2022-12-07T14:06:48;6.80;99.90
6792;DHT22;3433;48.730;9.108;2022-12-07T14:09:36;6.70;99.90
6792;DHT22;3433;48.730;9.108;2022-12-07T14:12:24;6.60;99.90
6792;DHT22;3433;48.730;9.108;2022-12-07T14:15:20;6.70;99.90
6792;DHT22;3433;48.730;9.108;2022-12-07T14:18:28;6.60;99.90
6792;DHT22;3433;48.730;9.108;2022-12-07T14:21:16;6.60;99.90
6792;DHT22;3433;48.730;9.108;2022-12-07T14:24:15;6.50;99.90
6792;DHT22;3433;48.730;9.108;2022-12-07T14:27:03;6.50;99.90
6792;DHT22;3433;48.730;9.108;2022-12-07T14:29:50;6.60;99.90
6792;DHT22;3433;48.730;9.108;2022-12-07T14:32:38;6.40;99.90
6792;DHT22;3433;48.730;9.108;2022-12-07T14:35:28;6.40;99.90
6792;DHT22;3433;48.730;9.108;2022-12-07T14:38:16;6.40;99.90
6792;DHT22;3433;48.730;9.108;2022-12-07T14:41:05;6.40;99.90
6792;DHT22;3433;48.730;9.108;2022-12-07T14:44:11;6.40;99.90
6792;DHT22;3433;48.730;9.108;2022-12-07T14:46:59;6.30;99.90
6792;DHT22;3433;48.730;9.108;2022-12-07T14:49:46;6.30;99.90
6792;DHT22;3433;48.730;9.108;2022-12-07T14:52:35;6.30;99.90
6792;DHT22;3433;48.730;9.108;2022-12-07T14:55:25;6.30;99.90
6792;DHT22;3433;48.730;9.108;2022-12-07T14:58:14;6.20;99.90
6792;DHT22;3433;48.730;9.108;2022-12-07T15:01:01;6.30;99.90
6792;DHT22;3433;48.730;9.108;2022-12-07T15:03:49;6.30;99.90
6792;DHT22;3433;48.730;9.108;2022-12-07T15:06:36;6.20;99.90
6792;DHT22;3433;48.730;9.108;2022-12-07T15:09:25;6.30;99.90
6792;DHT22;3433;48.730;9.108;2022-12-07T15:12:12;6.10;99.90
6792;DHT22;3433;48.730;9.108;2022-12-07T15:14:59;6.10;99.90
6792;DHT22;3433;48.730;9.108;2022-12-07T15:17:47;6.20;99.90
6792;DHT22;3433;48.730;9.108;2022-12-07T15:20:34;6.20;99.90
6792;DHT22;3433;48.730;9.108;2022-12-07T15:23:22;6.10;99.90
6792;DHT22;3433;48.730;9.108;2022-12-07T15:26:11;6.10;99.90
6792;DHT22;3433;48.730;9.108;2022-12-07T15:29:01;6.10;99.90
6792;DHT22;3433;48.730;9.108;2022-12-07T15:31:49;6.00;99.90
6792;DHT22;3433;48.730;9.108;2022-12-07T15:34:37;6.00;99.90
6792;DHT22;3433;48.730;9.108;2022-12-07T15:37:24;6.00;99.90
6792;DHT22;3433;48.730;9.108;2022-12-07T15:40:12;6.00;99.90
6792;DHT22;3433;48.730;9.108;2022-12-07T15:43:01;5.90;99.90
6792;DHT22;3433;48.730;9.108;2022-12-07T15:45:49;5.90;99.90
6792;DHT22;3433;48.730;9.108;2022-12-07T15:48:35;6.00;99.90
6792;DHT22;3433;48.730;9.108;2022-12-07T15:51:23;6.10;99.90
6792;DHT22;3433;48.730;9.108;2022-12-07T15:54:13;6.30;99.90
6792;DHT22;3433;48.730;9.108;2022-12-07T15:57:02;6.50;99.90
6792;DHT22;3433;48.730;9.108;2022-12-07T15:59:51;6.60;99.90
6792;DHT22;3433;48.730;9.108;2022-12-07T16:02:39;6.60;99.90
6792;DHT22;3433;48.730;9.108;2022-12-07T16:05:26;6.50;99.90
6792;DHT22;3433;48.730;9.108;2022-12-07T16:08:13;6.50;99.90
6792;DHT22;3433;48.730;9.108;2022-12-07T16:11:05;6.50;99.90
6792;DHT22;3433;48.730;9.108;2022-12-07T16:13:52;6.30;99.90
6792;DHT22;3433;48.730;9.108;2022-12-07T16:16:41;6.30;99.90
6792;DHT22;3433;48.730;9.108;2022-12-07T16:19:28;6.20;99.90
6792;DHT22;3433;48.730;9.108;2022-12-07T16:22:15;6.10;99.90
6792;DHT22;3433;48.730;9.108;2022-12-07T16:25:03;6.00;99.90
6792;DHT22;3433;48.730;9.108;2022-12-07T16:27:51;5.90;99.90
6792;DHT22;3433;48.730;9.108;2022-12-07T16:30:38;5.90;99.90
6792;DHT22;3433;48.730;9.108;2022-12-07T16:33:27;5.80;99.90
6792;DHT22;3433;48.730;9.108;2022-12-07T16:36:15;5.80;99.90
6792;DHT22;3433;48.730;9.108;2022-12-07T16:39:03;5.70;99.90
6792;DHT22;3433;48.730;9.108;2022-12-07T16:41:50;5.70;99.90
6792;DHT22;3433;48.730;9.108;2022-12-07T16:44:38;5.70;99.90
6792;DHT22;3433;48.730;9.108;2022-12-07T16:47:27;5.60;99.90
6792;DHT22;3433;48.730;9.108;2022-12-07T16:50:25;5.60;99.90
6792;DHT22;3433;48.730;9.108;2022-12-07T16:53:14;5.50;99.90
6792;DHT22;3433;48.730;9.108;2022-12-07T16:56:06;5.50;99.90
6792;DHT22;3433;48.730;9.108;2022-12-07T16:58:57;5.40;99.90
6792;DHT22;3433;48.730;9.108;2022-12-07T17:01:45;5.40;99.90
6792;DHT22;3433;48.730;9.108;2022-12-07T17:04:33;5.40;99.90
6792;DHT22;3433;48.730;9.108;2022-12-07T17:07:22;5.30;99.90
6792;DHT22;3433;48.730;9.108;2022-12-07T17:10:10;5.20;99.90
6792;DHT22;3433;48.730;9.108;2022-12-07T17:12:58;5.20;99.90
6792;DHT22;3433;48.730;9.108;2022-12-07T17:15:55;5.10;99.90
6792;DHT22;3433;48.730;9.108;2022-12-07T17:18:41;5.10;99.90
6792;DHT22;3433;48.730;9.108;2022-12-07T17:21:28;5.10;99.90
6792;DHT22;3433;48.730;9.108;2022-12-07T17:24:18;5.10;99.90
6792;DHT22;3433;48.730;9.108;2022-12-07T17:27:06;5.00;99.90
6792;DHT22;3433;48.730;9.108;2022-12-07T17:29:54;4.90;99.90
6792;DHT22;3433;48.730;9.108;2022-12-07T17:32:41;4.90;99.90
6792;DHT22;3433;48.730;9.108;2022-12-07T17:35:29;4.90;99.90
6792;DHT22;3433;48.730;9.108;2022-12-07T17:38:16;4.90;99.90
6792;DHT22;3433;48.730;9.108;2022-12-07T17:41:10;4.90;99.90
6792;DHT22;3433;48.730;9.108;2022-12-07T17:43:58;4.90;99.90
6792;DHT22;3433;48.730;9.108;2022-12-07T17:46:47;4.80;99.90
6792;DHT22;3433;48.730;9.108;2022-12-07T17:49:35;4.70;99.90
6792;DHT22;3433;48.730;9.108;2022-12-07T17:52:23;4.70;99.90
6792;DHT22;3433;48.730;9.108;2022-12-07T17:55:27;4.80;99.90
6792;DHT22;3433;48.730;9.108;2022-12-07T17:58:16;4.70;99.90
6792;DHT22;3433;48.730;9.108;2022-12-07T18:01:07;4.70;99.90
6792;DHT22;3433;48.730;9.108;2022-12-07T18:03:55;4.60;99.90
6792;DHT22;3433;48.730;9.108;2022-12-07T18:06:43;4.70;99.90
6792;DHT22;3433;48.730;9.108;2022-12-07T18:09:30;4.60;99.90
6792;DHT22;3433;48.730;9.108;2022-12-07T18:12:18;4.70;99.90
6792;DHT22;3433;48.730;9.108;2022-12-07T18:15:08;4.70;99.90
6792;DHT22;3433;48.730;9.108;2022-12-07T18:17:55;4.70;99.90
6792;DHT22;3433;48.730;9.108;2022-12-07T18:20:42;4.70;99.90
6792;DHT22;3433;48.730;9.108;2022-12-07T18:23:30;4.70;99.90
6792;DHT22;3433;48.730;9.108;2022-12-07T18:26:20;4.70;99.90
6792;DHT22;3433;48.730;9.108;2022-12-07T18:29:09;4.80;99.90
6792;DHT22;3433;48.730;9.108;2022-12-07T18:32:01;4.80;99.90
6792;DHT22;3433;48.730;9.108;2022-12-07T18:34:49;4.90;99.90
6792;DHT22;3433;48.730;9.108;2022-12-07T18:37:37;4.80;99.90
6792;DHT22;3433;48.730;9.108;2022-12-07T18:40:24;4.90;99.90
6792;DHT22;3433;48.730;9.108;2022-12-07T18:43:12;4.90;99.90
6792;DHT22;3433;48.730;9.108;2022-12-07T18:46:00;4.90;99.90
6792;DHT22;3433;48.730;9.108;2022-12-07T18:48:50;4.80;99.90
6792;DHT22;3433;48.730;9.108;2022-12-07T18:51:37;4.80;99.90
6792;DHT22;3433;48.730;9.108;2022-12-07T18:54:25;4.90;99.90
6792;DHT22;3433;48.730;9.108;2022-12-07T18:57:13;4.80;99.90
6792;DHT22;3433;48.730;9.108;2022-12-07T19:00:01;4.80;99.90
6792;DHT22;3433;48.730;9.108;2022-12-07T19:02:49;4.80;99.90
6792;DHT22;3433;48.730;9.108;2022-12-07T19:05:39;4.80;99.90
6792;DHT22;3433;48.730;9.108;2022-12-07T19:08:26;4.70;99.90
6792;DHT22;3433;48.730;9.108;2022-12-07T19:11:16;4.70;99.90
6792;DHT22;3433;48.730;9.108;2022-12-07T19:14:24;4.70;99.90